Time;durP1;ratioP1;P1;durP2;ratioP2;P2;SDS_P1;SDS_P2;PMS_P1;PMS_P2;Temp;Humidity;BMP_temperature;BMP_pressure;BME280_temperature;BME280_humidity;BME280_pressure;Samples;Min_cycle;Max_cycle;Signal;HPM_P1;HPM_P2
2022/05/07 00:02:50;;;;;;;4.00;3.67;;;;;;;;;;6282583;28;20545;-69
2022/05/07 00:06:10;;;;;;;4.28;3.38;;;;;;;;;;6286846;28;20495;-69
2022/05/07 00:09:30;;;;;;;5.43;4.15;;;;;;;;;;6278256;28;20484;-69
2022/05/07 00:12:53;;;;;;;5.15;4.65;;;;;;;;;;6278838;28;20227;-67
2022/05/07 00:19:52;;;;;;;5.93;4.63;;;;;;;;;;6281094;28;20227;-67
2022/05/07 00:23:13;;;;;;;4.90;3.63;;;;;;;;;;6282464;28;20258;-68
2022/05/07 00:26:33;;;;;;;4.70;4.17;;;;;;;;;;6261946;28;20306;-68
2022/05/07 00:29:56;;;;;;;8.13;7.43;;;;;;;;;;6273702;28;20235;-68
2022/05/07 00:33:16;;;;;;;9.30;6.93;;;;;;;;;;6282983;28;20501;-68
2022/05/07 00:36:36;;;;;;;6.87;6.17;;;;;;;;;;6258740;28;20254;-68
2022/05/07 00:39:57;;;;;;;6.70;6.07;;;;;;;;;;6282182;28;20239;-69
2022/05/07 00:43:17;;;;;;;7.50;6.77;;;;;;;;;;6282965;28;20616;-69
2022/05/07 00:46:40;;;;;;;7.27;6.67;;;;;;;;;;6268094;28;20223;-68
2022/05/07 00:51:33;;;;;;;9.47;6.57;;;;;;;;;;6282179;28;20239;-68
2022/05/07 00:53:41;;;;;;;8.53;7.03;;;;;;;;;;6281478;28;20231;-69
2022/05/07 00:57:02;;;;;;;7.90;7.03;;;;;;;;;;6278113;28;20915;-68
2022/05/07 01:00:23;;;;;;;7.90;7.20;;;;;;;;;;6276993;28;20310;-68
2022/05/07 01:03:46;;;;;;;9.03;6.97;;;;;;;;;;6288720;28;20228;-69
2022/05/07 01:07:07;;;;;;;8.83;7.73;;;;;;;;;;6277613;28;20228;-69
2022/05/07 01:10:29;;;;;;;9.30;8.40;;;;;;;;;;6285625;28;20615;-68
2022/05/07 01:13:50;;;;;;;7.63;6.73;;;;;;;;;;6294909;28;20239;-69
2022/05/07 01:17:11;;;;;;;8.43;7.50;;;;;;;;;;6276542;28;20228;-69
2022/05/07 01:20:34;;;;;;;8.57;7.77;;;;;;;;;;6278696;28;20231;-70
2022/05/07 01:23:56;;;;;;;8.43;7.27;;;;;;;;;;6278685;28;20501;-69
2022/05/07 01:27:21;;;;;;;9.00;7.60;;;;;;;;;;6280616;28;20235;-69
2022/05/07 01:30:42;;;;;;;12.70;7.33;;;;;;;;;;6279705;28;20220;-67
2022/05/07 01:34:03;;;;;;;11.97;7.87;;;;;;;;;;6284637;28;20243;-67
2022/05/07 01:37:26;;;;;;;8.87;8.17;;;;;;;;;;6281649;28;20322;-69
2022/05/07 01:40:48;;;;;;;9.73;7.43;;;;;;;;;;6287044;28;20227;-68
2022/05/07 01:44:09;;;;;;;9.80;8.27;;;;;;;;;;6282800;28;20231;-69
2022/05/07 01:51:07;;;;;;;8.57;7.70;;;;;;;;;;6284749;28;20231;-69
2022/05/07 01:54:31;;;;;;;9.30;8.53;;;;;;;;;;6286733;28;20232;-69
2022/05/07 01:57:55;;;;;;;7.73;7.07;;;;;;;;;;6273811;28;20231;-69
2022/05/07 02:01:17;;;;;;;8.13;7.43;;;;;;;;;;6302776;28;21072;-69
2022/05/07 02:04:39;;;;;;;7.13;6.53;;;;;;;;;;6269261;28;20228;-69
2022/05/07 02:08:02;;;;;;;7.03;6.30;;;;;;;;;;6278957;28;20231;-68
2022/05/07 02:11:22;;;;;;;9.67;7.00;;;;;;;;;;6286667;28;20223;-69
2022/05/07 02:14:44;;;;;;;6.53;5.93;;;;;;;;;;6283449;28;20227;-69
2022/05/07 02:18:05;;;;;;;6.73;6.07;;;;;;;;;;6286146;28;20231;-70
2022/05/07 02:21:26;;;;;;;8.00;5.70;;;;;;;;;;6279273;28;20239;-67
2022/05/07 02:24:47;;;;;;;7.30;6.60;;;;;;;;;;6285037;28;20516;-69
2022/05/07 02:28:17;;;;;;;8.20;7.40;;;;;;;;;;6282810;28;20227;-69
2022/05/07 02:31:39;;;;;;;8.10;7.30;;;;;;;;;;6276478;28;20235;-68
2022/05/07 02:34:59;;;;;;;9.57;8.67;;;;;;;;;;6284190;28;20235;-70
2022/05/07 02:38:30;;;;;;;8.93;8.03;;;;;;;;;;6279244;28;20329;-69
2022/05/07 02:45:30;;;;;;;36.70;33.50;;;;;;;;;;6288015;28;20246;-68
2022/05/07 02:48:57;;;;;;;25.17;22.77;;;;;;;;;;6275637;28;20274;-69
2022/05/07 02:52:17;;;;;;;10.80;9.70;;;;;;;;;;6289126;28;20227;-68
2022/05/07 02:55:38;;;;;;;10.97;10.03;;;;;;;;;;6280030;28;20239;-69
2022/05/07 02:58:58;;;;;;;10.20;9.20;;;;;;;;;;6278831;28;20227;-69
2022/05/07 03:02:19;;;;;;;9.77;8.77;;;;;;;;;;6296513;28;20231;-68
2022/05/07 03:05:41;;;;;;;10.77;9.77;;;;;;;;;;6280031;28;20227;-70
2022/05/07 03:09:01;;;;;;;11.00;9.97;;;;;;;;;;6284591;28;20318;-68
2022/05/07 03:12:23;;;;;;;12.27;11.07;;;;;;;;;;6290527;28;20230;-67
2022/05/07 03:15:44;;;;;;;14.73;13.37;;;;;;;;;;6269999;28;20232;-69
2022/05/07 03:19:07;;;;;;;13.63;12.33;;;;;;;;;;6279812;28;20239;-68
2022/05/07 03:22:29;;;;;;;14.43;13.03;;;;;;;;;;6285433;28;20240;-69
2022/05/07 03:25:51;;;;;;;14.63;13.23;;;;;;;;;;6277437;28;20235;-70
2022/05/07 03:29:11;;;;;;;16.60;15.10;;;;;;;;;;6266377;28;20227;-70
2022/05/07 03:32:32;;;;;;;14.60;13.40;;;;;;;;;;6272171;28;20585;-68
2022/05/07 03:35:53;;;;;;;15.93;14.40;;;;;;;;;;6291481;28;20231;-69
2022/05/07 03:39:15;;;;;;;14.70;13.47;;;;;;;;;;6284245;28;20235;-70
2022/05/07 03:42:36;;;;;;;15.57;13.97;;;;;;;;;;6284717;28;20227;-68
2022/05/07 03:45:58;;;;;;;18.73;16.80;;;;;;;;;;6284812;28;20596;-68
2022/05/07 03:49:18;;;;;;;16.07;14.47;;;;;;;;;;6284965;28;20231;-68
2022/05/07 03:56:19;;;;;;;16.87;15.23;;;;;;;;;;6296227;28;20322;-68
2022/05/07 03:59:39;;;;;;;19.30;17.53;;;;;;;;;;6273939;28;20227;-69
2022/05/07 04:03:00;;;;;;;21.40;19.33;;;;;;;;;;6280333;28;20231;-69
2022/05/07 04:06:30;;;;;;;19.50;17.63;;;;;;;;;;6282602;28;20580;-68
2022/05/07 04:09:54;;;;;;;22.57;20.37;;;;;;;;;;6280317;28;20524;-67
2022/05/07 04:13:18;;;;;;;20.17;18.27;;;;;;;;;;6286184;28;20243;-68
2022/05/07 04:16:44;;;;;;;21.70;19.23;;;;;;;;;;6286512;28;20234;-68
2022/05/07 04:20:09;;;;;;;22.60;20.33;;;;;;;;;;6276817;28;20231;-69
2022/05/07 04:23:32;;;;;;;22.03;20.00;;;;;;;;;;6280521;28;20239;-69
2022/05/07 04:26:52;;;;;;;22.77;20.60;;;;;;;;;;6282846;28;20228;-68
2022/05/07 04:30:15;;;;;;;23.40;21.00;;;;;;;;;;6270100;28;20893;-69
2022/05/07 04:33:37;;;;;;;22.27;19.47;;;;;;;;;;6297643;28;20309;-67
2022/05/07 04:37:04;;;;;;;23.13;20.93;;;;;;;;;;6286765;28;20235;-69
2022/05/07 04:40:25;;;;;;;23.67;21.37;;;;;;;;;;6277005;28;20224;-69
2022/05/07 04:43:46;;;;;;;23.30;21.13;;;;;;;;;;6285834;28;20263;-68
2022/05/07 04:47:11;;;;;;;24.33;21.80;;;;;;;;;;6285476;28;20234;-69
2022/05/07 04:50:31;;;;;;;24.40;22.07;;;;;;;;;;6291194;28;20232;-68
2022/05/07 04:54:18;;;;;;;27.37;24.80;;;;;;;;;;6291084;28;20616;-69
2022/05/07 04:57:39;;;;;;;25.80;23.27;;;;;;;;;;6284657;28;20530;-69
2022/05/07 05:01:01;;;;;;;25.67;23.37;;;;;;;;;;6280469;28;20231;-69
2022/05/07 05:04:24;;;;;;;26.13;23.53;;;;;;;;;;6286904;28;20238;-70
2022/05/07 05:07:46;;;;;;;26.33;23.83;;;;;;;;;;6286214;28;20231;-69
2022/05/07 05:11:07;;;;;;;26.13;23.63;;;;;;;;;;6271716;28;20597;-68
2022/05/07 05:18:07;;;;;;;26.73;24.03;;;;;;;;;;6280252;28;20235;-69
2022/05/07 05:21:33;;;;;;;27.03;24.30;;;;;;;;;;6291265;28;20243;-67
2022/05/07 05:25:04;;;;;;;28.20;25.50;;;;;;;;;;6286070;28;20235;-68
2022/05/07 05:28:25;;;;;;;26.33;23.93;;;;;;;;;;6287559;28;20231;-68
2022/05/07 05:31:52;;;;;;;29.53;26.63;;;;;;;;;;6286973;28;20744;-69
2022/05/07 05:35:19;;;;;;;25.80;23.30;;;;;;;;;;6286529;28;20227;-70
2022/05/07 05:38:45;;;;;;;26.67;23.93;;;;;;;;;;6288235;28;20227;-69
2022/05/07 05:42:09;;;;;;;24.93;22.33;;;;;;;;;;6281018;28;20326;-69
2022/05/07 05:45:34;;;;;;;22.93;20.60;;;;;;;;;;6305858;28;20330;-69
2022/05/07 05:48:55;;;;;;;25.73;23.07;;;;;;;;;;6271621;28;20680;-69
2022/05/07 05:52:16;;;;;;;23.47;21.13;;;;;;;;;;6285534;28;20227;-69
2022/05/07 05:55:38;;;;;;;23.23;21.07;;;;;;;;;;6274928;28;20621;-69
2022/05/07 05:58:58;;;;;;;20.93;18.83;;;;;;;;;;6277636;28;20232;-69
2022/05/07 06:02:26;;;;;;;21.67;19.67;;;;;;;;;;6282773;28;20280;-70
2022/05/07 06:05:53;;;;;;;21.70;19.63;;;;;;;;;;6279278;28;20323;-69
2022/05/07 06:09:14;;;;;;;22.40;20.20;;;;;;;;;;6270486;28;20617;-70
2022/05/07 06:12:37;;;;;;;20.57;18.63;;;;;;;;;;6284095;28;20239;-68
2022/05/07 06:15:58;;;;;;;20.13;18.03;;;;;;;;;;6284321;28;20239;-69
2022/05/07 06:19:18;;;;;;;21.67;19.57;;;;;;;;;;6286310;28;20231;-69
2022/05/07 06:22:46;;;;;;;19.93;17.93;;;;;;;;;;6272897;28;20933;-68
2022/05/07 06:29:47;;;;;;;17.93;16.23;;;;;;;;;;6281396;28;20230;-69
2022/05/07 06:33:08;;;;;;;16.23;14.83;;;;;;;;;;6286734;28;20562;-69
2022/05/07 06:36:36;;;;;;;15.55;14.15;;;;;;;;;;6285566;28;20239;-68
2022/05/07 06:39:56;;;;;;;14.90;13.57;;;;;;;;;;6280438;28;20231;-69
2022/05/07 06:43:17;;;;;;;13.97;12.40;;;;;;;;;;6298465;28;20236;-68
2022/05/07 06:46:56;;;;;;;13.27;11.88;;;;;;;;;;6289631;28;20223;-69
2022/05/07 06:50:16;;;;;;;11.07;10.07;;;;;;;;;;6280112;28;20239;-69
2022/05/07 06:53:37;;;;;;;10.98;9.98;;;;;;;;;;6281690;28;20325;-69
2022/05/07 06:56:57;;;;;;;10.90;9.93;;;;;;;;;;6275303;28;20318;-69
2022/05/07 07:00:18;;;;;;;11.50;10.43;;;;;;;;;;6269409;28;20579;-69
2022/05/07 07:03:39;;;;;;;10.35;9.32;;;;;;;;;;6282849;28;20720;-70
2022/05/07 07:07:00;;;;;;;12.90;11.18;;;;;;;;;;6281629;28;20563;-69
2022/05/07 07:10:20;;;;;;;11.90;10.82;;;;;;;;;;6285938;28;20231;-67
2022/05/07 07:13:41;;;;;;;11.63;9.38;;;;;;;;;;6285050;28;21273;-68
2022/05/07 07:17:02;;;;;;;10.57;9.48;;;;;;;;;;6275516;28;20236;-68
2022/05/07 07:20:24;;;;;;;10.30;9.30;;;;;;;;;;6271335;28;20232;-69
2022/05/07 07:23:45;;;;;;;10.18;7.88;;;;;;;;;;6284775;28;20227;-69
2022/05/07 07:27:06;;;;;;;8.02;7.20;;;;;;;;;;6276360;28;20256;-68
2022/05/07 07:30:26;;;;;;;7.93;7.20;;;;;;;;;;6286164;28;20234;-68
2022/05/07 07:33:47;;;;;;;8.65;7.68;;;;;;;;;;6278872;28;20230;-70
2022/05/07 07:37:09;;;;;;;8.00;6.65;;;;;;;;;;6277890;28;20227;-69
2022/05/07 07:40:31;;;;;;;8.70;7.88;;;;;;;;;;6278131;28;21508;-68
2022/05/07 07:43:53;;;;;;;5.93;4.80;;;;;;;;;;6278967;28;20227;-70
2022/05/07 07:50:57;;;;;;;8.02;5.25;;;;;;;;;;6282014;28;20299;-69
2022/05/07 07:54:18;;;;;;;6.90;5.70;;;;;;;;;;6286401;28;20231;-69
2022/05/07 07:57:39;;;;;;;6.88;4.97;;;;;;;;;;6283691;28;20247;-68
2022/05/07 08:01:00;;;;;;;5.30;4.82;;;;;;;;;;6288335;28;20474;-70
2022/05/07 08:04:21;;;;;;;6.10;4.03;;;;;;;;;;6286947;28;20380;-69
2022/05/07 08:14:59;;;;;;;8.32;6.60;;;;;;;;;;6276794;28;20223;-68
2022/05/07 08:18:20;;;;;;;5.70;5.07;;;;;;;;;;6283240;28;20239;-70
2022/05/07 08:21:41;;;;;;;7.72;5.95;;;;;;;;;;6285941;28;20691;-69
2022/05/07 08:25:01;;;;;;;5.00;4.50;;;;;;;;;;6292963;28;20235;-69
2022/05/07 08:28:24;;;;;;;5.40;4.90;;;;;;;;;;6294016;28;20636;-68
2022/05/07 08:31:45;;;;;;;7.60;5.60;;;;;;;;;;6288622;28;20243;-69
2022/05/07 08:35:06;;;;;;;8.57;6.82;;;;;;;;;;6281951;28;20254;-70
2022/05/07 08:38:26;;;;;;;5.55;5.03;;;;;;;;;;6292695;28;20318;-69
2022/05/07 08:41:48;;;;;;;8.25;5.82;;;;;;;;;;6276160;28;20226;-69
2022/05/07 08:45:10;;;;;;;7.18;5.53;;;;;;;;;;6284059;28;20236;-68
2022/05/07 08:48:31;;;;;;;7.07;4.97;;;;;;;;;;6280370;28;20219;-68
2022/05/07 08:51:54;;;;;;;5.07;4.60;;;;;;;;;;6277204;28;20246;-68
2022/05/07 08:55:15;;;;;;;4.53;4.10;;;;;;;;;;6285932;28;20248;-69
2022/05/07 08:58:35;;;;;;;6.25;5.03;;;;;;;;;;6287523;28;20556;-68
2022/05/07 09:01:57;;;;;;;5.55;4.28;;;;;;;;;;6285573;28;20726;-68
2022/05/07 09:05:19;;;;;;;4.88;4.40;;;;;;;;;;6284124;28;20628;-68
2022/05/07 09:08:40;;;;;;;4.43;4.03;;;;;;;;;;6288310;28;20234;-69
2022/05/07 09:12:01;;;;;;;4.60;4.18;;;;;;;;;;6288482;28;20306;-68
2022/05/07 09:15:21;;;;;;;4.75;4.05;;;;;;;;;;6283788;28;20231;-69
2022/05/07 09:18:49;;;;;;;6.15;5.63;;;;;;;;;;6275635;28;20235;-70
2022/05/07 09:22:11;;;;;;;5.25;4.75;;;;;;;;;;6275974;28;20231;-68
2022/05/07 09:25:31;;;;;;;5.07;4.57;;;;;;;;;;6291971;28;20231;-69
2022/05/07 09:28:52;;;;;;;8.05;4.35;;;;;;;;;;6290853;28;20494;-69
2022/05/07 09:32:14;;;;;;;5.85;4.18;;;;;;;;;;6283710;28;20290;-70
2022/05/07 09:35:51;;;;;;;6.78;6.07;;;;;;;;;;6291834;28;20231;-67
2022/05/07 09:39:12;;;;;;;6.50;5.75;;;;;;;;;;6287675;28;20317;-68
2022/05/07 09:42:33;;;;;;;7.72;5.05;;;;;;;;;;6287415;28;20238;-70
2022/05/07 09:45:54;;;;;;;5.43;4.85;;;;;;;;;;6288808;28;20231;-69
2022/05/07 09:49:15;;;;;;;6.50;5.80;;;;;;;;;;6281714;28;20242;-70
2022/05/07 09:57:30;;;;;;;2.92;2.60;;;;;;;;;;6277736;28;20711;-68
2022/05/07 09:59:57;;;;;;;4.10;2.85;;;;;;;;;;6283223;28;20242;-69
2022/05/07 10:03:20;;;;;;;3.55;2.45;;;;;;;;;;6283141;28;20223;-69
2022/05/07 10:06:45;;;;;;;4.82;3.33;;;;;;;;;;6277331;28;20227;-69
2022/05/07 10:10:18;;;;;;;5.88;4.90;;;;;;;;;;6277221;28;20322;-68
2022/05/07 10:13:40;;;;;;;4.70;4.30;;;;;;;;;;6283418;28;20255;-68
2022/05/07 10:17:01;;;;;;;5.95;4.53;;;;;;;;;;6288750;28;20260;-69
2022/05/07 10:20:23;;;;;;;6.65;4.00;;;;;;;;;;6283368;28;20628;-69
2022/05/07 10:23:51;;;;;;;6.78;5.78;;;;;;;;;;6284164;28;20732;-69
2022/05/07 10:27:23;;;;;;;8.32;7.20;;;;;;;;;;6287120;28;20262;-71
2022/05/07 10:30:47;;;;;;;6.93;5.90;;;;;;;;;;6283773;28;20759;-70
2022/05/07 10:34:08;;;;;;;10.38;5.72;;;;;;;;;;6274448;28;20232;-67
2022/05/07 10:37:28;;;;;;;7.97;7.20;;;;;;;;;;6277477;28;20232;-69
2022/05/07 10:40:52;;;;;;;6.57;5.53;;;;;;;;;;6281125;28;20231;-69
2022/05/07 10:44:18;;;;;;;6.78;5.40;;;;;;;;;;6288850;28;20546;-69
2022/05/07 10:47:41;;;;;;;6.65;6.05;;;;;;;;;;6284550;28;20251;-68
2022/05/07 10:51:02;;;;;;;8.15;5.95;;;;;;;;;;6288961;28;20231;-69
2022/05/07 10:54:23;;;;;;;6.82;6.22;;;;;;;;;;6283861;28;20239;-69
2022/05/07 10:57:45;;;;;;;6.55;6.00;;;;;;;;;;6283081;28;20234;-69
2022/05/07 11:01:07;;;;;;;8.05;6.65;;;;;;;;;;6285504;28;20476;-69
2022/05/07 11:04:27;;;;;;;6.30;5.80;;;;;;;;;;6280686;28;20302;-70
2022/05/07 11:07:47;;;;;;;6.95;5.57;;;;;;;;;;6279102;28;20593;-67
2022/05/07 11:11:09;;;;;;;6.53;5.93;;;;;;;;;;6284968;28;20231;-70
2022/05/07 11:14:32;;;;;;;6.88;6.20;;;;;;;;;;6283876;28;20236;-69
2022/05/07 11:17:54;;;;;;;7.25;6.55;;;;;;;;;;6280896;28;20799;-69
2022/05/07 11:21:15;;;;;;;7.10;6.40;;;;;;;;;;6270227;28;20318;-68
2022/05/07 11:24:36;;;;;;;8.70;7.90;;;;;;;;;;6290140;28;20317;-70
2022/05/07 11:27:58;;;;;;;8.65;6.57;;;;;;;;;;6284047;28;20235;-69
2022/05/07 11:31:25;;;;;;;6.60;5.95;;;;;;;;;;6284088;28;20356;-68
2022/05/07 11:34:47;;;;;;;6.82;6.13;;;;;;;;;;6283523;28;20893;-69
2022/05/07 11:38:12;;;;;;;7.72;6.22;;;;;;;;;;6283134;28;20242;-69
2022/05/07 11:41:33;;;;;;;6.53;5.10;;;;;;;;;;6286687;28;20657;-68
2022/05/07 11:48:32;;;;;;;6.53;5.38;;;;;;;;;;6285237;28;20223;-69
2022/05/07 11:52:03;;;;;;;6.75;6.10;;;;;;;;;;6275753;28;20223;-68
2022/05/07 11:55:26;;;;;;;6.13;5.43;;;;;;;;;;6280764;28;20332;-69
2022/05/07 11:58:49;;;;;;;7.38;6.30;;;;;;;;;;6269060;28;20963;-70
2022/05/07 12:02:09;;;;;;;9.05;6.10;;;;;;;;;;6284566;28;20227;-70
2022/05/07 12:05:39;;;;;;;8.52;6.15;;;;;;;;;;6273543;28;20632;-70
2022/05/07 12:09:10;;;;;;;8.30;5.05;;;;;;;;;;6279113;28;20220;-69
2022/05/07 12:12:31;;;;;;;7.20;6.53;;;;;;;;;;6284628;28;20219;-69
2022/05/07 12:19:31;;;;;;;6.88;4.88;;;;;;;;;;6276702;28;20234;-69
2022/05/07 12:30:12;;;;;;;3.95;3.65;;;;;;;;;;6278894;28;20235;-68
2022/05/07 12:33:33;;;;;;;4.90;3.65;;;;;;;;;;6282916;28;20239;-70
2022/05/07 12:36:54;;;;;;;5.93;4.40;;;;;;;;;;6270238;28;20228;-69
2022/05/07 12:40:14;;;;;;;8.05;5.45;;;;;;;;;;6277567;28;20603;-69
2022/05/07 12:43:36;;;;;;;6.10;5.00;;;;;;;;;;6278840;28;20627;-69
2022/05/07 12:46:59;;;;;;;4.13;3.72;;;;;;;;;;6270051;28;20291;-69
2022/05/07 12:50:19;;;;;;;7.80;5.43;;;;;;;;;;6278470;28;20310;-70
2022/05/07 12:53:40;;;;;;;6.88;5.40;;;;;;;;;;6284429;28;20618;-69
2022/05/07 12:57:00;;;;;;;6.78;4.53;;;;;;;;;;6287523;28;20235;-69
2022/05/07 13:00:22;;;;;;;5.22;4.78;;;;;;;;;;6285090;28;20656;-69
2022/05/07 13:03:43;;;;;;;3.95;3.65;;;;;;;;;;6281338;28;20223;-69
2022/05/07 13:07:04;;;;;;;4.93;3.83;;;;;;;;;;6286414;28;20219;-69
2022/05/07 13:10:24;;;;;;;5.65;4.13;;;;;;;;;;6283688;28;20254;-69
2022/05/07 13:13:45;;;;;;;4.53;3.92;;;;;;;;;;6283216;28;20632;-69
2022/05/07 13:17:09;;;;;;;6.22;3.83;;;;;;;;;;6283206;28;20250;-67
2022/05/07 13:20:31;;;;;;;4.60;4.20;;;;;;;;;;6289443;28;20297;-70
2022/05/07 13:23:52;;;;;;;4.80;4.25;;;;;;;;;;6290010;28;20239;-69
2022/05/07 13:27:13;;;;;;;6.07;4.95;;;;;;;;;;6288785;28;20620;-70
2022/05/07 13:30:33;;;;;;;18.73;17.33;;;;;;;;;;6285878;28;20235;-69
2022/05/07 13:33:55;;;;;;;5.65;4.82;;;;;;;;;;6276299;28;20226;-68
2022/05/07 13:37:18;;;;;;;6.03;5.00;;;;;;;;;;6288810;28;20227;-69
2022/05/07 13:40:38;;;;;;;3.88;3.50;;;;;;;;;;6285712;28;20224;-69
2022/05/07 13:44:00;;;;;;;3.88;3.20;;;;;;;;;;6291945;28;20238;-69
2022/05/07 13:47:21;;;;;;;5.72;3.38;;;;;;;;;;6282646;28;20218;-68
2022/05/07 13:50:44;;;;;;;3.83;3.53;;;;;;;;;;6290737;28;20614;-69
2022/05/07 13:54:05;;;;;;;5.18;3.90;;;;;;;;;;6284501;28;20244;-68
2022/05/07 13:57:26;;;;;;;4.38;3.40;;;;;;;;;;6283794;28;20235;-69
2022/05/07 14:00:47;;;;;;;5.38;3.65;;;;;;;;;;6282024;28;20307;-69
2022/05/07 14:04:07;;;;;;;4.03;2.88;;;;;;;;;;6279621;28;20235;-68
2022/05/07 14:07:30;;;;;;;3.90;2.83;;;;;;;;;;6280674;28;20508;-68
2022/05/07 14:10:51;;;;;;;3.10;2.85;;;;;;;;;;6282715;28;20663;-69
2022/05/07 14:14:11;;;;;;;3.10;2.80;;;;;;;;;;6283222;28;20235;-68
2022/05/07 14:17:33;;;;;;;7.28;3.08;;;;;;;;;;6275681;28;20232;-68
2022/05/07 14:20:56;;;;;;;4.10;2.95;;;;;;;;;;6281972;28;20500;-69
2022/05/07 14:24:17;;;;;;;4.43;2.60;;;;;;;;;;6295225;28;20222;-69
2022/05/07 14:27:39;;;;;;;4.18;3.05;;;;;;;;;;6270458;28;20233;-68
2022/05/07 14:31:00;;;;;;;3.15;2.85;;;;;;;;;;6276785;28;20235;-69
2022/05/07 14:34:21;;;;;;;4.15;3.75;;;;;;;;;;6278547;28;20235;-68
2022/05/07 14:37:42;;;;;;;5.53;3.30;;;;;;;;;;6282952;28;20247;-69
2022/05/07 14:41:03;;;;;;;6.50;4.25;;;;;;;;;;6279141;28;20258;-68
2022/05/07 14:44:24;;;;;;;4.95;3.38;;;;;;;;;;6282705;28;20235;-68
2022/05/07 14:47:45;;;;;;;4.25;3.85;;;;;;;;;;6289390;28;20227;-68
2022/05/07 14:51:05;;;;;;;4.90;4.00;;;;;;;;;;6286460;28;20271;-69
2022/05/07 14:54:26;;;;;;;7.95;7.22;;;;;;;;;;6280104;28;20273;-69
2022/05/07 14:57:48;;;;;;;7.25;6.55;;;;;;;;;;6290496;28;20223;-69
2022/05/07 15:01:09;;;;;;;4.47;4.07;;;;;;;;;;6274623;28;20314;-68
2022/05/07 15:04:29;;;;;;;6.32;5.32;;;;;;;;;;6282593;28;20231;-69
2022/05/07 15:07:50;;;;;;;4.05;3.17;;;;;;;;;;6275639;28;20230;-70
2022/05/07 15:11:11;;;;;;;3.13;2.83;;;;;;;;;;6285516;28;20259;-68
2022/05/07 15:14:36;;;;;;;7.88;7.22;;;;;;;;;;6279771;28;20235;-69
2022/05/07 15:17:57;;;;;;;3.38;3.08;;;;;;;;;;6287817;28;20248;-69
2022/05/07 15:21:18;;;;;;;6.97;5.70;;;;;;;;;;6282472;28;20235;-68
2022/05/07 15:24:38;;;;;;;4.53;4.07;;;;;;;;;;6282555;28;20243;-69
2022/05/07 15:27:59;;;;;;;4.35;3.33;;;;;;;;;;6277202;28;20629;-69
2022/05/07 15:31:20;;;;;;;4.00;3.63;;;;;;;;;;6276986;28;20228;-67
2022/05/07 15:38:19;;;;;;;6.38;5.30;;;;;;;;;;6277694;28;20567;-69
2022/05/07 15:41:40;;;;;;;9.07;6.70;;;;;;;;;;6285492;28;20318;-69
2022/05/07 15:45:01;;;;;;;7.40;6.47;;;;;;;;;;6283863;28;20239;-69
2022/05/07 15:48:23;;;;;;;5.53;5.03;;;;;;;;;;6271920;28;20232;-69
2022/05/07 15:51:44;;;;;;;6.18;5.68;;;;;;;;;;6288057;28;20617;-68
2022/05/07 15:55:05;;;;;;;5.93;5.43;;;;;;;;;;6286137;28;20235;-69
2022/05/07 15:58:26;;;;;;;4.43;4.03;;;;;;;;;;6277835;28;20259;-69
2022/05/07 16:01:46;;;;;;;7.00;5.10;;;;;;;;;;6285132;28;20533;-69
2022/05/07 16:05:09;;;;;;;4.20;3.85;;;;;;;;;;6279060;28;20228;-70
2022/05/07 16:08:30;;;;;;;6.15;5.55;;;;;;;;;;6272188;28;20227;-69
2022/05/07 16:11:52;;;;;;;3.88;3.53;;;;;;;;;;6280557;28;20792;-68
2022/05/07 16:15:13;;;;;;;3.35;3.10;;;;;;;;;;6283210;28;20235;-70
2022/05/07 16:18:34;;;;;;;2.80;2.60;;;;;;;;;;6280910;28;20263;-69
2022/05/07 16:21:55;;;;;;;5.97;3.95;;;;;;;;;;6274487;28;20236;-69
2022/05/07 16:25:16;;;;;;;3.70;2.50;;;;;;;;;;6282632;28;20230;-68
2022/05/07 16:28:36;;;;;;;3.30;2.42;;;;;;;;;;6282495;28;20319;-70
2022/05/07 16:32:01;;;;;;;5.55;3.30;;;;;;;;;;6288728;28;20227;-69
2022/05/07 16:35:21;;;;;;;3.25;2.53;;;;;;;;;;6288145;28;22515;-69
2022/05/07 16:38:43;;;;;;;4.07;3.67;;;;;;;;;;6290432;28;20620;-71
2022/05/07 16:42:04;;;;;;;4.63;2.10;;;;;;;;;;6285456;28;20223;-69
2022/05/07 16:45:25;;;;;;;2.92;2.63;;;;;;;;;;6280723;28;20231;-69
2022/05/07 16:48:46;;;;;;;2.33;2.13;;;;;;;;;;6285991;28;20235;-69
2022/05/07 16:52:07;;;;;;;3.80;3.40;;;;;;;;;;6278411;28;20768;-69
2022/05/07 16:55:29;;;;;;;4.80;4.40;;;;;;;;;;6284098;28;20606;-69
2022/05/07 16:58:49;;;;;;;4.22;3.92;;;;;;;;;;6282424;28;20223;-68
2022/05/07 17:02:10;;;;;;;2.42;2.22;;;;;;;;;;6288011;28;20224;-69
2022/05/07 17:05:31;;;;;;;3.00;1.98;;;;;;;;;;6281645;28;20319;-67
2022/05/07 17:08:52;;;;;;;4.82;4.43;;;;;;;;;;6283657;28;20231;-69
2022/05/07 17:12:14;;;;;;;4.15;3.10;;;;;;;;;;6290354;28;20232;-68
2022/05/07 17:15:36;;;;;;;3.20;3.00;;;;;;;;;;6279074;28;20228;-70
2022/05/07 17:18:56;;;;;;;4.72;3.85;;;;;;;;;;6277975;28;20227;-69
2022/05/07 17:22:17;;;;;;;4.88;3.92;;;;;;;;;;6287415;28;20310;-69
2022/05/07 17:25:38;;;;;;;6.50;4.38;;;;;;;;;;6291882;28;20242;-69
2022/05/07 17:29:00;;;;;;;6.00;3.45;;;;;;;;;;6290144;28;20318;-70
2022/05/07 17:32:20;;;;;;;6.05;4.90;;;;;;;;;;6483931;23;20233;-69
2022/05/07 17:35:41;;;;;;;5.78;4.43;;;;;;;;;;6217133;28;20229;-69
2022/05/07 17:39:02;;;;;;;7.10;4.55;;;;;;;;;;6214336;28;20246;-70
2022/05/07 17:42:22;;;;;;;6.28;5.70;;;;;;;;;;6196354;28;20241;-69
2022/05/07 17:45:46;;;;;;;9.50;4.10;;;;;;;;;;6208334;28;20791;-69
2022/05/07 17:49:19;;;;;;;7.53;4.70;;;;;;;;;;6215015;28;20332;-69
2022/05/07 17:52:41;;;;;;;6.75;4.85;;;;;;;;;;6215400;28;20233;-70
2022/05/07 17:56:02;;;;;;;6.22;4.32;;;;;;;;;;6209211;28;20236;-70
2022/05/07 17:59:24;;;;;;;6.20;3.03;;;;;;;;;;6211665;28;20768;-69
2022/05/07 18:02:46;;;;;;;4.18;2.75;;;;;;;;;;6208980;28;20550;-69
2022/05/07 18:06:07;;;;;;;6.60;3.60;;;;;;;;;;6209323;28;20571;-69
2022/05/07 18:09:27;;;;;;;4.55;3.92;;;;;;;;;;6207491;28;20233;-68
2022/05/07 18:12:48;;;;;;;3.40;3.10;;;;;;;;;;6217112;28;20237;-69
2022/05/07 18:16:08;;;;;;;3.20;2.90;;;;;;;;;;6214800;28;20225;-69
2022/05/07 18:19:30;;;;;;;2.95;2.20;;;;;;;;;;6211517;28;20500;-70
2022/05/07 18:22:51;;;;;;;4.37;3.13;;;;;;;;;;6219179;28;20510;-68
2022/05/07 18:26:12;;;;;;;4.17;3.53;;;;;;;;;;6212790;28;20237;-69
2022/05/07 18:29:32;;;;;;;4.63;4.23;;;;;;;;;;6208890;28;20237;-71
2022/05/07 18:32:53;;;;;;;3.33;3.03;;;;;;;;;;6216557;28;20589;-69
2022/05/07 18:43:31;;;;;;;4.90;2.93;;;;;;;;;;6215871;28;20224;-69
2022/05/07 18:46:51;;;;;;;4.77;2.20;;;;;;;;;;6216275;28;20320;-68
2022/05/07 18:50:12;;;;;;;4.47;3.33;;;;;;;;;;6207549;28;20241;-69
2022/05/07 18:53:34;;;;;;;2.40;2.20;;;;;;;;;;6214593;28;20299;-69
2022/05/07 19:00:33;;;;;;;5.40;3.37;;;;;;;;;;6204906;28;20229;-69
2022/05/07 19:03:55;;;;;;;6.20;3.50;;;;;;;;;;6212322;28;20229;-69
2022/05/07 19:07:15;;;;;;;4.27;3.87;;;;;;;;;;6208702;28;20225;-69
2022/05/07 19:10:37;;;;;;;4.60;3.80;;;;;;;;;;6215001;28;20229;-70
2022/05/07 19:13:58;;;;;;;5.13;4.40;;;;;;;;;;6205798;28;20238;-68
2022/05/07 19:17:19;;;;;;;6.43;5.73;;;;;;;;;;6207092;28;20241;-69
2022/05/07 19:20:39;;;;;;;6.87;6.03;;;;;;;;;;6215841;28;20233;-69
2022/05/07 19:24:01;;;;;;;7.07;5.70;;;;;;;;;;6208239;28;20331;-69
2022/05/07 19:27:22;;;;;;;9.70;5.83;;;;;;;;;;6207251;28;20233;-69
2022/05/07 19:30:43;;;;;;;9.20;5.93;;;;;;;;;;6209656;28;20237;-69
2022/05/07 19:34:04;;;;;;;9.00;6.13;;;;;;;;;;6211617;28;20264;-70
2022/05/07 19:37:25;;;;;;;8.17;6.57;;;;;;;;;;6203214;28;20237;-70
2022/05/07 19:40:46;;;;;;;10.43;8.47;;;;;;;;;;6207673;28;20229;-69
2022/05/07 19:44:07;;;;;;;11.23;9.67;;;;;;;;;;6214593;28;20241;-69
2022/05/07 19:47:31;;;;;;;10.50;9.40;;;;;;;;;;6213837;28;20217;-69
2022/05/07 19:50:54;;;;;;;12.00;9.53;;;;;;;;;;6214981;28;20233;-69
2022/05/07 19:54:14;;;;;;;10.17;9.03;;;;;;;;;;6209768;28;20689;-69
2022/05/07 19:57:34;;;;;;;10.10;7.70;;;;;;;;;;6214912;28;20233;-70
2022/05/07 20:00:56;;;;;;;13.20;9.37;;;;;;;;;;6209114;28;20559;-70
2022/05/07 20:04:17;;;;;;;13.47;9.00;;;;;;;;;;6206037;28;20233;-69
2022/05/07 20:07:38;;;;;;;11.83;7.83;;;;;;;;;;6207870;28;20225;-69
2022/05/07 20:10:59;;;;;;;11.73;9.10;;;;;;;;;;6211554;28;20348;-69
2022/05/07 20:14:20;;;;;;;9.17;7.70;;;;;;;;;;6199051;28;20601;-69
2022/05/07 20:17:42;;;;;;;13.90;6.77;;;;;;;;;;6208990;28;20241;-69
2022/05/07 20:24:42;;;;;;;10.70;6.80;;;;;;;;;;6213002;28;20247;-70
2022/05/07 20:28:03;;;;;;;12.43;8.17;;;;;;;;;;6205666;28;20253;-69
2022/05/07 20:31:23;;;;;;;10.27;5.90;;;;;;;;;;6204211;28;20320;-69
2022/05/07 20:34:45;;;;;;;12.50;6.20;;;;;;;;;;6206106;28;20237;-70
2022/05/07 20:38:06;;;;;;;13.53;6.90;;;;;;;;;;6203675;28;20225;-69
2022/05/07 20:41:26;;;;;;;9.07;4.80;;;;;;;;;;6201246;28;20241;-69
2022/05/07 20:48:25;;;;;;;16.47;5.50;;;;;;;;;;6202954;28;20256;-68
2022/05/07 20:51:49;;;;;;;13.37;4.67;;;;;;;;;;6209696;28;20229;-69
2022/05/07 20:55:11;;;;;;;8.40;4.40;;;;;;;;;;6216023;28;20237;-70
2022/05/07 20:58:31;;;;;;;8.67;4.30;;;;;;;;;;6204296;28;20225;-69
2022/05/07 21:01:53;;;;;;;10.77;4.97;;;;;;;;;;6200697;28;20241;-69
2022/05/07 21:05:19;;;;;;;9.60;3.83;;;;;;;;;;6195966;28;20241;-69
2022/05/07 21:08:41;;;;;;;14.93;5.30;;;;;;;;;;6191631;28;20238;-69
2022/05/07 21:12:02;;;;;;;9.40;4.47;;;;;;;;;;6201940;28;20760;-69
2022/05/07 21:15:23;;;;;;;11.70;4.20;;;;;;;;;;6212007;28;20234;-69